Time;durP1;ratioP1;P1;durP2;ratioP2;P2;SDS_P1;SDS_P2;PMS_P1;PMS_P2;Temp;Humidity;BMP_temperature;BMP_pressure;BME280_temperature;BME280_humidity;BME280_pressure;Samples;Min_cycle;Max_cycle;Signal;HPM_P1;HPM_P2
2021/01/01 00:01:46;;;;;;;15.13;13.63;;;6.50;71.70;;;;;;4896602;29;20460;-77
2021/01/01 00:04:13;;;;;;;13.20;11.80;;;6.50;71.60;;;;;;4896020;29;20987;-78
2021/01/01 00:06:45;;;;;;;12.73;11.43;;;6.50;71.80;;;;;;4898982;29;20516;-77
2021/01/01 00:09:12;;;;;;;11.80;9.60;;;6.60;71.90;;;;;;4899350;29;20460;-78
2021/01/01 00:11:39;;;;;;;12.07;10.23;;;6.60;71.70;;;;;;4899814;29;20802;-77
2021/01/01 00:14:05;;;;;;;11.40;10.20;;;6.60;71.70;;;;;;4899417;29;20493;-77
2021/01/01 00:16:33;;;;;;;11.43;9.37;;;6.60;71.90;;;;;;4899100;29;20515;-77
2021/01/01 00:18:59;;;;;;;12.60;9.10;;;6.70;71.90;;;;;;4900065;29;20463;-77
2021/01/01 00:21:30;;;;;;;10.60;9.10;;;6.70;72.00;;;;;;4899926;29;20459;-77
2021/01/01 00:23:57;;;;;;;9.00;8.10;;;6.70;71.80;;;;;;4898160;29;20546;-77
2021/01/01 00:26:24;;;;;;;8.77;7.87;;;6.80;71.70;;;;;;4888641;29;20996;-77
2021/01/01 00:28:50;;;;;;;9.10;8.20;;;6.80;71.40;;;;;;4900080;29;20462;-77
2021/01/01 00:31:18;;;;;;;10.37;9.37;;;6.80;71.30;;;;;;4899326;29;20555;-77
2021/01/01 00:33:46;;;;;;;9.93;8.93;;;6.80;71.30;;;;;;4899611;29;20471;-77
2021/01/01 00:36:13;;;;;;;10.90;9.80;;;6.90;71.30;;;;;;4899008;29;20467;-77
2021/01/01 00:38:40;;;;;;;12.60;10.60;;;6.90;71.30;;;;;;4899159;29;20471;-77
2021/01/01 00:41:06;;;;;;;12.03;10.83;;;7.00;71.40;;;;;;4899844;29;20511;-77
2021/01/01 00:43:33;;;;;;;15.00;11.30;;;7.00;71.20;;;;;;4899115;29;20471;-77
2021/01/01 00:46:00;;;;;;;10.83;9.73;;;7.00;70.90;;;;;;4899481;29;20524;-77
2021/01/01 00:48:26;;;;;;;9.83;8.73;;;7.00;71.20;;;;;;4898861;29;20559;-77
2021/01/01 00:50:54;;;;;;;10.50;7.83;;;6.90;70.90;;;;;;4897736;29;20464;-78
2021/01/01 00:53:20;;;;;;;9.60;8.23;;;6.90;71.00;;;;;;4899358;29;20468;-78
2021/01/01 00:55:47;;;;;;;9.87;8.17;;;6.80;70.70;;;;;;4899069;29;20506;-77
2021/01/01 00:58:13;;;;;;;10.33;7.90;;;6.90;70.80;;;;;;4898869;29;20976;-77
2021/01/01 01:00:40;;;;;;;10.17;8.10;;;6.90;70.90;;;;;;4899391;29;20526;-77
2021/01/01 01:03:06;;;;;;;11.60;8.60;;;6.90;70.80;;;;;;4898940;29;20469;-77
2021/01/01 01:05:33;;;;;;;11.20;7.73;;;6.90;70.80;;;;;;4899132;29;20461;-77
2021/01/01 01:08:00;;;;;;;9.10;8.20;;;6.90;70.90;;;;;;4898993;29;20472;-77
2021/01/01 01:10:27;;;;;;;10.13;8.97;;;7.00;71.00;;;;;;4899113;29;20517;-77
2021/01/01 01:12:53;;;;;;;9.77;8.77;;;7.00;70.90;;;;;;4892774;29;20460;-78
2021/01/01 01:15:20;;;;;;;9.90;8.90;;;7.00;70.70;;;;;;4899259;29;20501;-78
2021/01/01 01:17:46;;;;;;;13.47;9.80;;;7.10;70.80;;;;;;4894938;29;20504;-78
2021/01/01 01:20:14;;;;;;;11.03;8.00;;;7.10;70.60;;;;;;4897253;29;20463;-78
2021/01/01 01:22:41;;;;;;;8.70;7.90;;;7.10;70.50;;;;;;4898722;29;20941;-78
2021/01/01 01:25:09;;;;;;;9.63;7.93;;;7.10;70.50;;;;;;4898860;29;20472;-79
2021/01/01 01:27:36;;;;;;;8.60;7.70;;;7.10;70.60;;;;;;4898704;29;20881;-79
2021/01/01 01:30:04;;;;;;;10.33;7.83;;;7.10;70.70;;;;;;4898823;29;20550;-78
2021/01/01 01:32:31;;;;;;;10.87;8.93;;;7.20;70.70;;;;;;4898334;29;20485;-78
2021/01/01 01:34:57;;;;;;;11.90;9.33;;;7.20;70.60;;;;;;4898999;29;20853;-78
2021/01/01 01:37:24;;;;;;;9.50;8.50;;;7.20;70.50;;;;;;4898481;29;20562;-78
2021/01/01 01:39:50;;;;;;;10.57;8.47;;;7.20;70.60;;;;;;4898684;29;20462;-78
2021/01/01 01:42:18;;;;;;;9.33;8.10;;;7.20;70.70;;;;;;4898148;29;20454;-78
2021/01/01 01:44:44;;;;;;;9.70;8.80;;;7.30;70.80;;;;;;4897148;29;20513;-78
2021/01/01 01:47:17;;;;;;;9.87;8.73;;;7.30;70.60;;;;;;4898229;29;20485;-78
2021/01/01 01:49:44;;;;;;;9.03;8.20;;;7.30;70.40;;;;;;4881262;29;21006;-78
2021/01/01 01:52:11;;;;;;;9.67;8.20;;;7.30;70.40;;;;;;4898097;29;20892;-78
2021/01/01 01:54:39;;;;;;;9.77;8.00;;;7.40;70.50;;;;;;4898461;29;20515;-78
2021/01/01 01:57:08;;;;;;;9.73;7.77;;;7.40;70.50;;;;;;4897976;29;20544;-78
2021/01/01 01:59:36;;;;;;;8.37;7.43;;;7.40;70.40;;;;;;4898308;29;20475;-78
2021/01/01 02:02:02;;;;;;;8.60;7.80;;;7.50;70.40;;;;;;4897760;29;20957;-78
2021/01/01 02:04:29;;;;;;;10.83;9.10;;;7.50;69.90;;;;;;4897951;29;20462;-78
2021/01/01 02:06:56;;;;;;;9.17;8.27;;;7.50;69.80;;;;;;4898138;29;20465;-78
2021/01/01 02:09:23;;;;;;;10.73;9.17;;;7.50;69.60;;;;;;4897357;29;20884;-78
2021/01/01 02:11:50;;;;;;;9.73;8.67;;;7.50;69.70;;;;;;4896611;29;20458;-78
2021/01/01 02:14:17;;;;;;;9.90;8.90;;;7.50;69.70;;;;;;4897692;29;20480;-78
2021/01/01 02:16:45;;;;;;;9.10;8.20;;;7.50;69.80;;;;;;4898034;29;20643;-78
2021/01/01 02:19:13;;;;;;;10.80;8.97;;;7.50;69.60;;;;;;4890951;29;20463;-78
2021/01/01 02:21:41;;;;;;;11.07;9.97;;;7.50;69.60;;;;;;4897960;29;20550;-77
2021/01/01 02:24:10;;;;;;;9.93;8.73;;;7.50;69.70;;;;;;4897832;29;20491;-77
2021/01/01 02:26:37;;;;;;;14.10;11.17;;;7.40;69.70;;;;;;4897702;29;20461;-77
2021/01/01 02:29:03;;;;;;;9.87;7.60;;;7.50;69.90;;;;;;4896966;29;20461;-77
2021/01/01 02:31:30;;;;;;;10.60;8.93;;;7.50;69.90;;;;;;4897634;29;20454;-77
2021/01/01 02:33:56;;;;;;;10.90;9.10;;;7.50;69.80;;;;;;4897319;29;20451;-77
2021/01/01 02:36:23;;;;;;;9.87;8.37;;;7.50;69.80;;;;;;4896487;29;20487;-77
2021/01/01 02:38:50;;;;;;;8.70;7.90;;;7.40;69.80;;;;;;4896033;29;20473;-77
2021/01/01 02:41:17;;;;;;;11.30;8.37;;;7.40;69.60;;;;;;4897110;29;20466;-77
2021/01/01 02:43:44;;;;;;;9.40;8.47;;;7.40;69.70;;;;;;4897723;29;20970;-78
2021/01/01 02:46:10;;;;;;;9.40;8.43;;;7.40;69.80;;;;;;4896777;29;20481;-77
2021/01/01 02:48:37;;;;;;;9.47;8.50;;;7.50;69.70;;;;;;4897539;29;20522;-77
2021/01/01 02:51:04;;;;;;;9.43;8.50;;;7.50;69.60;;;;;;4897292;29;20821;-77
2021/01/01 02:53:30;;;;;;;11.67;9.40;;;7.50;69.60;;;;;;4897858;29;20463;-77
2021/01/01 02:55:57;;;;;;;9.50;8.40;;;7.50;69.40;;;;;;4896989;29;20492;-77
2021/01/01 02:58:24;;;;;;;10.97;9.13;;;7.50;69.40;;;;;;4896984;29;20828;-77
2021/01/01 03:00:51;;;;;;;10.37;9.30;;;7.60;69.60;;;;;;4896937;29;20468;-77
2021/01/01 03:03:18;;;;;;;9.90;8.93;;;7.50;69.50;;;;;;4895573;29;20769;-78
2021/01/01 03:05:45;;;;;;;9.00;8.10;;;7.60;69.30;;;;;;4897481;29;20990;-77
2021/01/01 03:08:11;;;;;;;9.30;8.30;;;7.50;69.10;;;;;;4897037;29;20454;-76
2021/01/01 03:10:38;;;;;;;9.60;8.00;;;7.50;69.20;;;;;;4897208;29;20458;-78
2021/01/01 03:13:06;;;;;;;11.43;8.80;;;7.50;69.40;;;;;;4897630;29;20499;-76
2021/01/01 03:15:33;;;;;;;12.50;9.50;;;7.50;69.70;;;;;;4896656;29;21005;-77
2021/01/01 03:18:00;;;;;;;10.47;9.40;;;7.40;69.80;;;;;;4896967;29;20466;-77
2021/01/01 03:20:26;;;;;;;10.03;8.60;;;7.30;70.30;;;;;;4896427;29;20466;-78
2021/01/01 03:22:53;;;;;;;10.93;9.03;;;7.30;70.70;;;;;;4897092;29;20962;-77
2021/01/01 03:25:19;;;;;;;10.00;8.50;;;7.30;71.70;;;;;;4891496;29;20471;-77
2021/01/01 03:27:46;;;;;;;13.70;10.47;;;7.20;71.20;;;;;;4897154;29;21019;-77
2021/01/01 03:30:13;;;;;;;12.33;9.17;;;7.20;71.40;;;;;;4894901;29;20499;-77
2021/01/01 03:32:41;;;;;;;10.30;8.90;;;7.30;71.60;;;;;;4897506;29;20456;-77
2021/01/01 03:35:08;;;;;;;10.57;8.47;;;7.20;71.70;;;;;;4896975;29;20515;-78
2021/01/01 03:37:36;;;;;;;9.77;8.53;;;7.20;71.80;;;;;;4897052;29;20468;-77
2021/01/01 03:40:05;;;;;;;10.60;9.60;;;7.20;72.00;;;;;;4896665;29;20492;-78
2021/01/01 03:42:31;;;;;;;12.23;8.73;;;7.20;72.10;;;;;;4900952;29;20842;-78
2021/01/01 03:44:58;;;;;;;11.43;9.37;;;7.20;72.30;;;;;;4899772;29;20493;-78
2021/01/01 03:47:24;;;;;;;11.30;9.40;;;7.20;72.40;;;;;;4901027;29;20862;-78
2021/01/01 03:49:52;;;;;;;13.13;10.60;;;7.10;72.40;;;;;;4899981;29;20466;-77
2021/01/01 03:52:18;;;;;;;11.40;10.20;;;7.10;72.60;;;;;;4900547;29;20900;-78
2021/01/01 03:54:45;;;;;;;10.90;9.53;;;7.10;72.70;;;;;;4900481;29;20490;-78
2021/01/01 03:57:11;;;;;;;12.40;9.53;;;7.10;72.70;;;;;;4898634;29;20485;-78
2021/01/01 03:59:37;;;;;;;10.03;9.10;;;7.10;72.80;;;;;;4900093;29;20999;-77
2021/01/01 04:02:04;;;;;;;14.00;10.97;;;7.20;72.90;;;;;;4900032;29;20463;-78
2021/01/01 04:04:30;;;;;;;14.43;10.53;;;7.20;72.80;;;;;;4900689;29;20452;-77
2021/01/01 04:06:58;;;;;;;12.40;10.30;;;7.20;72.70;;;;;;4899929;29;20457;-76
2021/01/01 04:09:24;;;;;;;13.53;11.33;;;7.20;72.70;;;;;;4899881;29;20463;-77
2021/01/01 04:11:51;;;;;;;10.67;9.53;;;7.20;72.80;;;;;;4900188;29;20464;-77
2021/01/01 04:14:17;;;;;;;12.17;9.23;;;7.20;72.80;;;;;;4899821;29;20943;-76
2021/01/01 04:16:45;;;;;;;11.73;9.70;;;7.20;72.70;;;;;;4900110;29;20469;-77
2021/01/01 04:19:12;;;;;;;9.53;8.40;;;7.30;72.80;;;;;;4900112;29;20470;-77
2021/01/01 04:21:45;;;;;;;14.93;11.30;;;7.30;73.00;;;;;;4900015;29;20507;-76
2021/01/01 04:24:13;;;;;;;13.40;9.47;;;7.30;73.00;;;;;;4898774;29;20461;-76
2021/01/01 04:26:39;;;;;;;10.57;9.50;;;7.30;72.90;;;;;;4898536;29;21015;-76
2021/01/01 04:29:06;;;;;;;14.03;10.00;;;7.30;73.00;;;;;;4899602;29;20465;-75
2021/01/01 04:31:34;;;;;;;11.30;9.70;;;7.30;73.20;;;;;;4899916;29;20533;-76
2021/01/01 04:34:01;;;;;;;12.23;9.17;;;7.30;73.10;;;;;;4899500;29;21033;-75
2021/01/01 04:36:27;;;;;;;13.17;11.17;;;7.30;73.10;;;;;;4899650;29;20504;-76
2021/01/01 04:38:54;;;;;;;11.30;9.77;;;7.30;73.00;;;;;;4899769;29;20458;-76
2021/01/01 04:41:22;;;;;;;12.50;11.17;;;7.30;73.00;;;;;;4900098;29;20516;-76
2021/01/01 04:43:49;;;;;;;12.53;9.80;;;7.30;73.20;;;;;;4899253;29;20463;-76
2021/01/01 04:46:16;;;;;;;12.73;11.43;;;7.30;73.20;;;;;;4899230;29;20584;-76
2021/01/01 04:48:44;;;;;;;11.30;9.57;;;7.30;73.10;;;;;;4899777;29;20503;-76
2021/01/01 04:51:11;;;;;;;10.23;9.20;;;7.30;73.20;;;;;;4897471;29;20463;-77
2021/01/01 04:53:38;;;;;;;13.60;11.03;;;7.30;73.30;;;;;;4898644;29;20453;-76
2021/01/01 04:56:06;;;;;;;11.57;10.37;;;7.30;73.30;;;;;;4899364;29;21017;-76
2021/01/01 04:58:35;;;;;;;9.93;8.93;;;7.30;73.30;;;;;;4898804;29;20949;-77
2021/01/01 05:01:02;;;;;;;14.63;10.67;;;7.30;73.30;;;;;;4898965;29;20470;-77
2021/01/01 05:03:29;;;;;;;10.70;9.50;;;7.30;73.40;;;;;;4899199;29;21002;-76
2021/01/01 05:05:56;;;;;;;12.10;10.73;;;7.30;73.40;;;;;;4898800;29;20462;-76
2021/01/01 05:08:23;;;;;;;11.10;9.60;;;7.40;73.40;;;;;;4899407;29;20461;-76
2021/01/01 05:10:50;;;;;;;11.07;9.70;;;7.40;74.00;;;;;;4898764;29;20975;-76
2021/01/01 05:13:18;;;;;;;11.47;10.20;;;7.40;73.30;;;;;;4898568;29;20840;-76
2021/01/01 05:15:47;;;;;;;11.37;10.20;;;7.40;73.00;;;;;;4898971;29;20499;-77
2021/01/01 05:18:21;;;;;;;11.17;10.00;;;7.40;72.90;;;;;;4897276;29;20502;-76
2021/01/01 05:20:49;;;;;;;12.33;9.50;;;7.40;72.80;;;;;;4898908;29;20456;-76
2021/01/01 05:23:23;;;;;;;11.33;9.97;;;7.40;72.80;;;;;;4898916;29;20466;-75
2021/01/01 05:26:05;;;;;;;11.87;9.60;;;7.40;72.70;;;;;;4898392;29;20465;-76
2021/01/01 05:28:45;;;;;;;13.97;11.93;;;7.50;72.90;;;;;;4897505;29;20516;-77
2021/01/01 05:31:14;;;;;;;12.23;10.23;;;7.50;73.10;;;;;;4896949;29;20463;-76
2021/01/01 05:33:42;;;;;;;14.77;11.27;;;7.50;73.00;;;;;;4898841;29;20556;-77
2021/01/01 05:36:09;;;;;;;13.80;10.90;;;7.50;72.70;;;;;;4898598;29;20860;-76
2021/01/01 05:38:37;;;;;;;11.80;10.23;;;7.50;72.90;;;;;;4898589;29;20464;-76
2021/01/01 05:41:03;;;;;;;15.00;10.17;;;7.50;73.10;;;;;;4898517;29;20488;-76
2021/01/01 05:43:30;;;;;;;12.10;10.03;;;7.40;73.10;;;;;;4896317;29;20462;-76
2021/01/01 05:46:09;;;;;;;14.13;11.30;;;7.40;73.30;;;;;;4898677;29;20492;-76
2021/01/01 05:48:36;;;;;;;13.30;10.30;;;7.50;73.60;;;;;;4898129;29;20452;-76
2021/01/01 05:51:07;;;;;;;14.07;11.27;;;7.50;73.40;;;;;;4898005;29;20472;-76
2021/01/01 05:53:33;;;;;;;13.43;9.73;;;7.50;73.10;;;;;;4898413;29;20554;-75
2021/01/01 05:56:07;;;;;;;13.00;9.70;;;7.50;73.20;;;;;;4898214;29;20501;-75
2021/01/01 05:58:34;;;;;;;11.73;10.53;;;7.40;73.90;;;;;;4898215;29;20468;-76
2021/01/01 06:01:02;;;;;;;11.13;9.90;;;7.40;73.30;;;;;;4898007;29;20476;-76
2021/01/01 06:03:33;;;;;;;12.63;10.27;;;7.40;73.40;;;;;;4897138;29;20478;-76
2021/01/01 06:06:04;;;;;;;14.70;10.60;;;7.30;73.30;;;;;;4885989;29;20466;-76
2021/01/01 06:08:31;;;;;;;10.90;9.30;;;7.40;73.30;;;;;;4898333;29;20464;-77
2021/01/01 06:11:00;;;;;;;9.97;7.97;;;7.30;73.00;;;;;;4895922;29;20458;-76
2021/01/01 06:13:31;;;;;;;8.17;7.37;;;7.30;73.00;;;;;;4897447;29;20455;-76
2021/01/01 06:15:59;;;;;;;9.23;8.00;;;7.20;72.90;;;;;;4897494;29;21090;-76
2021/01/01 06:18:28;;;;;;;9.47;7.47;;;7.20;73.10;;;;;;4897787;29;20462;-76
2021/01/01 06:20:58;;;;;;;9.00;7.93;;;7.20;73.10;;;;;;4897586;29;20473;-76
2021/01/01 06:23:32;;;;;;;7.63;6.93;;;7.20;73.00;;;;;;4897720;29;20872;-76
2021/01/01 06:25:59;;;;;;;8.17;7.13;;;7.20;73.00;;;;;;4897560;29;20810;-76
2021/01/01 06:28:27;;;;;;;7.33;6.50;;;7.20;73.10;;;;;;4897659;29;20473;-76
2021/01/01 06:30:56;;;;;;;8.60;7.43;;;7.20;73.20;;;;;;4897343;29;21037;-76
2021/01/01 06:33:23;;;;;;;8.47;6.57;;;7.20;73.30;;;;;;4897588;29;20510;-76
2021/01/01 06:35:51;;;;;;;8.27;6.70;;;7.20;73.20;;;;;;4897617;29;20580;-76
2021/01/01 06:38:40;;;;;;;6.63;5.93;;;7.20;73.20;;;;;;4894545;29;20554;-76
2021/01/01 06:41:12;;;;;;;6.87;6.03;;;7.20;73.20;;;;;;4891465;29;20456;-77
2021/01/01 06:43:51;;;;;;;7.43;6.70;;;7.20;73.20;;;;;;4897858;29;20502;-77
2021/01/01 06:46:32;;;;;;;7.00;6.27;;;7.20;73.20;;;;;;4896754;29;20474;-75
2021/01/01 06:48:59;;;;;;;6.63;5.87;;;7.20;73.00;;;;;;4896484;29;20472;-77
2021/01/01 06:51:29;;;;;;;6.37;5.50;;;7.20;72.90;;;;;;4896190;29;20465;-76
2021/01/01 06:54:11;;;;;;;6.77;6.10;;;7.20;72.60;;;;;;4896609;29;20550;-77
2021/01/01 06:56:40;;;;;;;7.17;6.47;;;7.20;72.50;;;;;;4896382;29;20908;-76
2021/01/01 06:59:10;;;;;;;7.10;6.13;;;7.20;72.50;;;;;;4896060;29;20471;-77
2021/01/01 07:01:42;;;;;;;7.43;6.57;;;7.20;72.60;;;;;;4896210;29;20451;-77
2021/01/01 07:04:09;;;;;;;7.43;5.63;;;7.20;72.50;;;;;;4895091;29;20941;-77
2021/01/01 07:06:40;;;;;;;7.73;6.23;;;7.20;72.60;;;;;;4896074;29;20452;-77
2021/01/01 07:09:14;;;;;;;6.57;5.97;;;7.20;72.50;;;;;;4896350;29;20543;-77
2021/01/01 07:11:45;;;;;;;7.43;5.80;;;7.20;72.20;;;;;;4896248;29;20460;-77
2021/01/01 07:14:13;;;;;;;6.30;5.43;;;7.10;72.10;;;;;;4896387;29;20531;-76
2021/01/01 07:16:41;;;;;;;5.70;5.13;;;7.10;72.20;;;;;;4898625;29;20501;-76
2021/01/01 07:19:08;;;;;;;6.77;5.93;;;7.10;72.20;;;;;;4899798;29;20460;-77
2021/01/01 07:21:35;;;;;;;6.20;5.60;;;7.10;72.20;;;;;;4899151;29;20458;-77
2021/01/01 07:24:02;;;;;;;6.00;5.40;;;7.10;72.10;;;;;;4899962;29;20821;-76
2021/01/01 07:26:30;;;;;;;8.50;5.60;;;7.10;72.00;;;;;;4899099;29;20504;-76
2021/01/01 07:29:00;;;;;;;5.90;4.87;;;7.10;72.00;;;;;;4899681;29;20457;-76
2021/01/01 07:31:27;;;;;;;6.37;5.77;;;7.10;72.10;;;;;;4895563;29;20565;-76
2021/01/01 07:33:54;;;;;;;6.80;6.10;;;7.10;72.20;;;;;;4899531;29;20864;-76
2021/01/01 07:36:21;;;;;;;6.30;5.70;;;7.00;72.20;;;;;;4899543;29;20496;-76
2021/01/01 07:38:49;;;;;;;7.07;6.17;;;7.00;72.30;;;;;;4899177;29;20483;-76
2021/01/01 07:41:18;;;;;;;5.87;4.50;;;7.00;72.30;;;;;;4898685;29;20461;-77
2021/01/01 07:43:49;;;;;;;5.97;5.20;;;7.10;72.40;;;;;;4899091;29;20490;-76
2021/01/01 07:46:15;;;;;;;5.37;4.87;;;7.10;72.40;;;;;;4876002;29;696248;-77
2021/01/01 07:48:42;;;;;;;6.63;5.10;;;7.10;72.20;;;;;;4900391;29;21014;-77
2021/01/01 07:51:10;;;;;;;8.40;6.70;;;7.10;72.10;;;;;;4900187;29;20455;-77
2021/01/01 07:53:37;;;;;;;8.30;7.50;;;7.10;72.10;;;;;;4900633;29;20457;-76
2021/01/01 07:56:06;;;;;;;7.00;6.30;;;7.20;72.10;;;;;;4900217;29;20557;-76
2021/01/01 07:58:33;;;;;;;6.90;5.90;;;7.20;72.10;;;;;;4898861;29;20466;-77
2021/01/01 08:01:06;;;;;;;8.20;6.40;;;7.20;72.10;;;;;;4899911;29;20469;-76
2021/01/01 08:03:33;;;;;;;6.27;5.67;;;7.20;72.10;;;;;;4900362;29;20505;-75
2021/01/01 08:06:01;;;;;;;7.70;6.00;;;7.20;72.40;;;;;;4900405;29;20460;-75
2021/01/01 08:08:27;;;;;;;7.70;6.77;;;7.20;72.60;;;;;;4900096;29;20502;-76
2021/01/01 08:10:55;;;;;;;6.73;5.60;;;7.20;72.70;;;;;;4899619;29;20608;-77
2021/01/01 08:13:24;;;;;;;6.00;5.40;;;7.20;72.70;;;;;;4900382;29;20547;-76
2021/01/01 08:15:53;;;;;;;7.87;5.20;;;7.20;72.60;;;;;;4899747;29;20501;-77
2021/01/01 08:18:22;;;;;;;6.53;5.60;;;7.20;72.60;;;;;;4900282;29;20469;-77
2021/01/01 08:20:49;;;;;;;6.50;4.97;;;7.20;72.50;;;;;;4899967;29;20453;-76
2021/01/01 08:23:18;;;;;;;6.07;5.40;;;7.30;72.10;;;;;;4898596;29;20454;-76
2021/01/01 08:25:47;;;;;;;7.87;5.57;;;7.30;71.70;;;;;;4880425;29;20478;-76
2021/01/01 08:28:19;;;;;;;6.40;5.80;;;7.40;71.70;;;;;;4886112;29;20494;-77
2021/01/01 08:30:52;;;;;;;5.47;4.97;;;7.40;71.90;;;;;;4894898;29;21026;-77
2021/01/01 08:33:20;;;;;;;7.23;5.43;;;7.40;71.70;;;;;;4899464;29;20956;-78
2021/01/01 08:35:47;;;;;;;5.07;4.27;;;7.30;71.60;;;;;;4899590;29;20963;-77
2021/01/01 08:38:18;;;;;;;5.80;4.43;;;7.40;71.90;;;;;;4898979;29;20460;-76
2021/01/01 08:40:45;;;;;;;5.10;4.60;;;7.40;72.10;;;;;;4898884;29;20463;-78
2021/01/01 08:43:13;;;;;;;4.30;3.90;;;7.40;72.00;;;;;;4898779;29;20462;-78
2021/01/01 08:45:42;;;;;;;4.53;4.13;;;7.40;71.90;;;;;;4898860;29;20854;-78
2021/01/01 08:48:09;;;;;;;5.00;3.47;;;7.50;72.00;;;;;;4900047;29;20470;-78
2021/01/01 08:50:43;;;;;;;5.43;4.80;;;7.50;72.00;;;;;;4898148;29;20944;-78
2021/01/01 08:53:10;;;;;;;4.53;4.13;;;7.60;71.60;;;;;;4898533;29;20498;-78
2021/01/01 08:55:37;;;;;;;6.80;5.70;;;7.50;71.20;;;;;;4899322;29;20504;-79
2021/01/01 08:58:08;;;;;;;6.23;5.07;;;7.60;71.10;;;;;;4899397;29;20908;-80
2021/01/01 09:00:37;;;;;;;5.20;4.40;;;7.60;70.50;;;;;;4899024;29;20464;-80
2021/01/01 09:03:05;;;;;;;5.23;4.07;;;7.60;70.00;;;;;;4898853;29;21239;-79
2021/01/01 09:05:31;;;;;;;4.70;4.30;;;7.60;69.80;;;;;;4898935;29;20881;-79
2021/01/01 09:08:12;;;;;;;4.83;4.30;;;7.60;70.00;;;;;;4899325;29;20464;-79
2021/01/01 09:10:40;;;;;;;4.53;4.07;;;7.60;70.00;;;;;;4899360;29;20488;-79
2021/01/01 09:13:17;;;;;;;4.57;3.90;;;7.60;70.10;;;;;;4898914;29;20452;-79
2021/01/01 09:15:45;;;;;;;4.10;3.40;;;7.60;70.10;;;;;;4898734;29;21002;-78
2021/01/01 09:18:12;;;;;;;6.40;4.87;;;7.60;70.00;;;;;;4897128;29;21008;-78
2021/01/01 09:20:42;;;;;;;5.53;3.93;;;7.60;69.50;;;;;;4898712;29;20466;-79
2021/01/01 09:23:10;;;;;;;4.67;4.20;;;7.60;69.60;;;;;;4898447;29;20461;-78
2021/01/01 09:25:40;;;;;;;5.20;4.70;;;7.70;69.80;;;;;;4899085;29;20537;-76
2021/01/01 09:28:10;;;;;;;4.40;3.60;;;7.70;69.50;;;;;;4898542;29;20471;-77
2021/01/01 09:30:37;;;;;;;3.60;3.30;;;7.70;69.50;;;;;;4898354;29;20898;-77
2021/01/01 09:33:07;;;;;;;3.27;2.97;;;7.80;69.40;;;;;;4894647;29;20476;-77
2021/01/01 09:35:33;;;;;;;3.80;3.43;;;7.90;69.20;;;;;;4897896;29;20494;-77
2021/01/01 09:38:01;;;;;;;3.10;2.80;;;7.90;68.70;;;;;;4897582;29;20463;-76
2021/01/01 09:40:29;;;;;;;4.33;3.93;;;8.00;68.10;;;;;;4898050;29;20470;-77
2021/01/01 09:42:57;;;;;;;4.90;4.30;;;8.10;67.60;;;;;;4898175;29;20460;-76
2021/01/01 09:45:23;;;;;;;3.63;3.33;;;8.00;67.40;;;;;;4896343;29;20501;-76
2021/01/01 09:47:50;;;;;;;4.30;3.47;;;8.00;67.10;;;;;;4896721;29;20458;-77
2021/01/01 09:50:16;;;;;;;4.13;3.73;;;8.00;67.00;;;;;;4898157;29;20833;-78
2021/01/01 09:52:43;;;;;;;3.87;3.47;;;7.90;66.60;;;;;;4897869;29;20468;-77
2021/01/01 09:55:10;;;;;;;4.73;3.83;;;7.90;66.60;;;;;;4897470;29;20499;-76
2021/01/01 09:57:38;;;;;;;5.13;3.73;;;7.90;66.60;;;;;;4897623;29;20970;-76
2021/01/01 10:00:09;;;;;;;7.00;3.90;;;7.90;66.70;;;;;;4897857;29;20515;-77
2021/01/01 10:02:35;;;;;;;3.80;3.40;;;8.00;66.80;;;;;;4896829;29;20473;-77
2021/01/01 10:05:02;;;;;;;4.30;3.47;;;8.10;66.40;;;;;;4897751;29;20801;-77
2021/01/01 10:07:29;;;;;;;4.67;4.23;;;8.20;66.10;;;;;;4897989;29;20469;-76
2021/01/01 10:09:56;;;;;;;3.80;3.50;;;8.20;65.90;;;;;;4896649;29;20470;-76
2021/01/01 10:12:23;;;;;;;3.83;3.43;;;8.30;65.50;;;;;;4896354;29;20464;-77
2021/01/01 10:14:50;;;;;;;4.90;4.50;;;8.30;65.20;;;;;;4897701;29;20462;-75
2021/01/01 10:17:18;;;;;;;3.37;3.13;;;8.30;64.70;;;;;;4897940;29;20471;-78
2021/01/01 10:19:44;;;;;;;4.07;3.67;;;8.40;64.60;;;;;;4896969;29;20986;-77
2021/01/01 10:22:10;;;;;;;3.47;3.10;;;8.40;64.90;;;;;;4898031;29;20460;-76
2021/01/01 10:24:37;;;;;;;4.00;2.97;;;8.40;64.40;;;;;;4897418;29;20467;-76
2021/01/01 10:27:04;;;;;;;3.30;2.67;;;8.50;63.80;;;;;;4897735;29;20515;-76
2021/01/01 10:29:30;;;;;;;3.93;3.37;;;8.50;63.30;;;;;;4897387;29;20493;-76
2021/01/01 10:32:02;;;;;;;2.67;2.47;;;8.50;63.60;;;;;;4897102;29;20486;-77
2021/01/01 10:34:30;;;;;;;3.80;3.40;;;8.50;63.90;;;;;;4897420;29;21055;-76
2021/01/01 10:36:56;;;;;;;3.10;2.80;;;8.50;63.60;;;;;;4896023;29;20525;-76
2021/01/01 10:39:23;;;;;;;3.00;2.70;;;8.50;62.50;;;;;;4897004;29;20455;-76
2021/01/01 10:41:50;;;;;;;3.00;2.73;;;8.50;61.20;;;;;;4898098;29;20451;-76
2021/01/01 10:44:17;;;;;;;3.77;3.20;;;8.40;61.60;;;;;;4897237;29;20958;-77
2021/01/01 10:46:47;;;;;;;3.50;3.20;;;8.30;62.00;;;;;;4882202;29;20483;-77
2021/01/01 10:49:13;;;;;;;3.17;2.73;;;8.30;61.80;;;;;;4897183;29;20511;-76
2021/01/01 10:51:41;;;;;;;3.07;2.77;;;8.30;62.20;;;;;;4897466;29;20463;-77
2021/01/01 10:54:08;;;;;;;2.83;2.63;;;8.30;62.60;;;;;;4897555;29;20461;-77
2021/01/01 10:56:34;;;;;;;3.33;2.97;;;8.40;62.70;;;;;;4895475;29;20593;-77
2021/01/01 10:59:01;;;;;;;3.67;3.37;;;8.40;62.50;;;;;;4897530;29;20568;-77
2021/01/01 11:01:27;;;;;;;3.40;3.20;;;8.50;62.10;;;;;;4896634;29;20985;-77
2021/01/01 11:03:54;;;;;;;4.53;3.37;;;8.50;61.90;;;;;;4895537;29;20545;-77
2021/01/01 11:06:20;;;;;;;3.00;2.80;;;8.50;61.30;;;;;;4896344;29;20459;-76
2021/01/01 11:08:48;;;;;;;2.70;2.50;;;8.50;61.30;;;;;;4896474;29;20457;-76
2021/01/01 11:11:21;;;;;;;3.07;2.80;;;8.50;61.50;;;;;;4897475;29;20561;-76
2021/01/01 11:13:50;;;;;;;3.27;2.63;;;8.50;61.30;;;;;;4896600;29;20458;-77
2021/01/01 12:22:56;;;;;;;4.97;4.50;;;8.60;60.10;;;;;;4841813;29;20825;-75
2021/01/01 12:25:23;;;;;;;3.70;3.40;;;8.50;60.00;;;;;;4840197;29;20499;-74
2021/01/01 12:27:50;;;;;;;4.13;3.77;;;8.60;59.90;;;;;;4870404;29;20461;-75
2021/01/01 12:30:20;;;;;;;3.50;3.20;;;8.60;59.70;;;;;;4899227;29;20468;-74
2021/01/01 12:32:50;;;;;;;4.03;3.47;;;8.70;59.60;;;;;;4899522;29;20451;-75
2021/01/01 12:35:17;;;;;;;3.90;3.13;;;8.70;59.50;;;;;;4899924;29;20511;-75
2021/01/01 12:37:43;;;;;;;3.63;3.33;;;8.70;59.50;;;;;;4899841;29;20544;-75
2021/01/01 12:40:11;;;;;;;4.20;3.90;;;8.70;59.40;;;;;;4899829;29;20467;-75
2021/01/01 12:42:38;;;;;;;3.50;3.20;;;8.80;59.30;;;;;;4899266;29;20564;-74
2021/01/01 12:45:06;;;;;;;3.47;3.17;;;8.80;59.10;;;;;;4899157;29;20524;-74
2021/01/01 12:47:34;;;;;;;4.17;3.53;;;8.80;58.80;;;;;;4899338;29;20540;-74
2021/01/01 12:50:00;;;;;;;4.00;3.60;;;8.80;58.90;;;;;;4898541;29;20461;-75
2021/01/01 12:52:27;;;;;;;3.20;2.90;;;8.80;59.10;;;;;;4898115;29;20944;-74
2021/01/01 12:54:53;;;;;;;4.10;3.80;;;8.80;59.30;;;;;;4899332;29;20456;-75
2021/01/01 12:57:20;;;;;;;4.30;3.90;;;8.80;59.50;;;;;;4899053;29;21770;-75
2021/01/01 12:59:46;;;;;;;6.60;4.13;;;8.80;59.40;;;;;;4899418;29;20469;-75
2021/01/01 13:02:13;;;;;;;5.10;4.47;;;8.80;59.50;;;;;;4897839;29;20459;-75
2021/01/01 13:04:40;;;;;;;4.87;4.43;;;8.80;59.40;;;;;;4897811;29;20467;-75
2021/01/01 13:07:07;;;;;;;4.40;3.53;;;8.80;59.20;;;;;;4899220;29;20455;-76
2021/01/01 13:09:33;;;;;;;4.40;3.77;;;8.70;59.20;;;;;;4899422;29;20457;-77
2021/01/01 13:12:00;;;;;;;4.90;4.47;;;8.60;59.10;;;;;;4898887;29;20466;-76
2021/01/01 13:14:26;;;;;;;8.97;7.13;;;8.50;58.90;;;;;;4897588;29;20466;-76
2021/01/01 13:16:55;;;;;;;5.77;5.27;;;8.50;59.10;;;;;;4896852;29;20498;-76
2021/01/01 13:19:22;;;;;;;6.50;5.90;;;8.50;59.10;;;;;;4899072;29;20955;-77
2021/01/01 13:21:49;;;;;;;6.37;4.20;;;8.50;59.10;;;;;;4898222;29;20498;-77
2021/01/01 13:24:16;;;;;;;3.87;3.57;;;8.50;59.30;;;;;;4898806;29;20463;-76
2021/01/01 13:26:42;;;;;;;6.33;5.13;;;8.50;59.40;;;;;;4898929;29;20482;-76
2021/01/01 13:29:09;;;;;;;7.47;6.73;;;8.60;59.40;;;;;;4898899;29;20486;-74
2021/01/01 13:31:37;;;;;;;8.20;6.73;;;8.60;59.40;;;;;;4898698;29;20458;-75
2021/01/01 13:34:05;;;;;;;6.07;5.20;;;8.70;59.20;;;;;;4898851;29;20467;-75
2021/01/01 13:36:32;;;;;;;6.30;5.33;;;8.60;58.90;;;;;;4898380;29;20498;-75
2021/01/01 13:39:00;;;;;;;6.37;4.73;;;8.70;59.20;;;;;;4898818;29;20510;-75
2021/01/01 13:41:27;;;;;;;5.20;4.70;;;8.70;59.20;;;;;;4897900;29;20463;-75
2021/01/01 13:43:54;;;;;;;4.70;4.27;;;8.70;59.10;;;;;;4895852;29;20492;-75
2021/01/01 13:46:22;;;;;;;5.77;5.10;;;8.80;58.70;;;;;;4897546;29;20576;-76
2021/01/01 13:48:49;;;;;;;5.07;4.57;;;8.80;58.40;;;;;;4898686;29;20470;-76
2021/01/01 13:51:15;;;;;;;5.73;4.70;;;8.80;58.30;;;;;;4898013;29;20463;-75
2021/01/01 13:53:42;;;;;;;5.73;4.57;;;8.80;58.50;;;;;;4897803;29;20959;-76
2021/01/01 13:56:14;;;;;;;5.00;4.50;;;8.80;58.20;;;;;;4897637;29;20503;-77
2021/01/01 13:58:41;;;;;;;5.53;4.97;;;8.80;58.00;;;;;;4898580;29;20459;-75
2021/01/01 14:01:07;;;;;;;5.93;5.43;;;8.80;58.20;;;;;;4897896;29;20465;-77
2021/01/01 14:03:34;;;;;;;5.67;4.93;;;8.90;58.20;;;;;;4898006;29;20848;-77